KLND/LND METAR and TAF weather

Enter ICAO airport designator
Station Type Date Time Source
KLND METAR 2022/08/12 14:53 UTC NOAA

KLND 121453Z AUTO 11003KT 10SM CLR 22/13 A3030 RMK AO2 SLP193 T02170133 50001


Station Type Date Time Source
KLND Decoded METAR 2022/08/12 14:53 UTC NOAA

LANDER HUNT FIELD, WY, United States (KLND) 42-49N 108-44W 1694M
Aug 12, 2022 - 10:53 AM EDT / 2022.08.12 1453 UTC
Wind: from the ESE (110 degrees) at 3 MPH (3 KT):0
Visibility: 10 mile(s):0
Sky conditions: clear
Temperature: 71.1 F (21.7 C)
Dew Point: 55.9 F (13.3 C)
Relative Humidity: 58%
Pressure (altimeter): 30.3 in. Hg (1026 hPa)
Pressure tendency: 0.00 inches (0.1 hPa) higher than three hours ago
ob: KLND 121453Z AUTO 11003KT 10SM CLR 22/13 A3030 RMK AO2 SLP193 T02170133 50001
cycle: 15

Station Type Date Time Source
KLND TAF 2022/08/12 12:22 UTC NOAA

TAF KLND 121120Z 1212/1312 25004KT P6SM FEW100 SCT120
FM121400 VRB04KT P6SM FEW100 SCT120
FM121900 28010KT P6SM VCTS BKN050CB BKN120
FM130700 VRB05KT P6SM BKN120

Example: see airport list